Time;durP1;ratioP1;P1;durP2;ratioP2;P2;SDS_P1;SDS_P2;PMS_P1;PMS_P2;Temp;Humidity;BMP_temperature;BMP_pressure;BME280_temperature;BME280_humidity;BME280_pressure;Samples;Min_cycle;Max_cycle;Signal;HPM_P1;HPM_P2
2023/01/18 00:00:45;;;;;;;223.20;22.05;;;;;;;9.11;86.77;91578.28;5039707;28;20025;-88
2023/01/18 00:03:11;;;;;;;318.05;24.55;;;;;;;9.51;83.76;91571.63;5039324;28;20033;-88
2023/01/18 00:05:41;;;;;;;445.25;33.00;;;;;;;9.30;82.08;91559.47;5039160;28;20061;-88
2023/01/18 00:08:07;;;;;;;208.70;20.13;;;;;;;9.44;82.48;91556.50;5038754;28;20064;-88
2023/01/18 00:10:33;;;;;;;89.13;15.20;;;;;;;9.22;84.67;91559.59;5055624;28;20029;-88
2023/01/18 00:12:58;;;;;;;48.72;13.23;;;;;;;9.51;84.25;91558.56;5023127;28;20036;-88
2023/01/18 00:15:24;;;;;;;99.47;14.48;;;;;;;9.62;78.23;91558.91;5039016;28;20026;-88
2023/01/18 00:17:52;;;;;;;483.40;27.27;;;;;;;8.43;86.94;91556.75;5039202;28;20041;-88
2023/01/18 00:20:21;;;;;;;383.58;25.95;;;;;;;6.79;100.00;91567.66;5038644;28;20068;-88
2023/01/18 00:22:47;;;;;;;937.53;53.72;;;;;;;8.00;100.00;91537.78;5022518;28;20025;-88
2023/01/18 00:25:13;;;;;;;319.73;25.17;;;;;;;8.30;94.93;91553.31;5022709;28;20033;-88
2023/01/18 00:27:41;;;;;;;368.73;28.85;;;;;;;7.39;100.00;91559.88;5038787;28;20108;-89
2023/01/18 00:30:07;;;;;;;1132.30;68.22;;;;;;;8.16;99.59;91548.41;5039274;28;20076;-88
2023/01/18 00:32:33;;;;;;;109.97;17.77;;;;;;;8.20;98.02;91564.19;5022318;28;20131;-88
2023/01/18 00:34:59;;;;;;;246.00;24.27;;;;;;;7.95;96.02;91553.66;5022417;28;20025;-88
2023/01/18 00:37:25;;;;;;;62.65;16.25;;;;;;;8.46;96.84;91576.19;5022283;28;20308;-88
2023/01/18 00:39:51;;;;;;;564.65;38.75;;;;;;;8.53;89.99;91570.47;5022568;28;20132;-88
2023/01/18 00:45:01;;;;;;;114.97;18.17;;;;;;;8.10;96.25;91567.94;5038710;28;20056;-88
2023/01/18 00:47:26;;;;;;;122.53;18.67;;;;;;;7.63;92.49;91569.66;5039555;28;20021;-88
2023/01/18 00:49:51;;;;;;;37.72;15.00;;;;;;;8.04;94.46;91587.47;5022300;28;20026;-88
2023/01/18 00:52:17;;;;;;;34.88;14.18;;;;;;;8.49;88.91;91599.06;5039585;28;20028;-88
2023/01/18 00:54:42;;;;;;;44.80;14.88;;;;;;;8.26;85.47;91602.00;5038367;28;20033;-88
2023/01/18 00:57:08;;;;;;;57.85;13.65;;;;;;;8.05;89.50;91604.63;5021759;28;20312;-88
2023/01/18 00:59:33;;;;;;;42.67;13.95;;;;;;;6.87;93.42;91605.88;5008526;28;20026;-88
2023/01/18 01:01:58;;;;;;;41.05;15.02;;;;;;;7.02;98.11;91598.63;5034900;28;20494;-87
2023/01/18 01:07:08;;;;;;;46.17;15.45;;;;;;;7.08;98.01;91618.22;5032277;28;20076;-87
2023/01/18 01:09:33;;;;;;;46.08;15.32;;;;;;;7.19;98.53;91592.59;5019481;28;20029;-87
2023/01/18 01:26:06;;;;;;;39.03;14.07;;;;;;;6.60;100.00;91597.41;5018046;28;20076;-88
2023/01/18 01:28:51;;;;;;;39.50;12.57;;;;;;;5.97;100.00;91608.16;5021898;28;20120;-87
2023/01/18 01:31:17;;;;;;;42.90;13.45;;;;;;;6.71;95.35;91621.25;5037330;28;20025;-88
2023/01/18 01:33:44;;;;;;;39.13;13.82;;;;;;;6.94;93.72;91628.81;5037404;28;20079;-88
2023/01/18 01:36:18;;;;;;;36.60;13.05;;;;;;;7.34;93.99;91619.97;5036894;28;20029;-88
2023/01/18 01:38:44;;;;;;;30.42;13.15;;;;;;;7.15;94.14;91613.28;5037487;28;20449;-88
2023/01/18 01:41:16;;;;;;;31.75;12.18;;;;;;;7.09;97.28;91601.53;5037074;28;20033;-88
2023/01/18 01:43:43;;;;;;;35.53;13.63;;;;;;;6.53;96.02;91598.94;5038520;28;20026;-88
2023/01/18 01:46:27;;;;;;;35.47;12.93;;;;;;;5.99;100.00;91595.63;5037113;28;20526;-88
2023/01/18 01:48:59;;;;;;;38.55;13.15;;;;;;;6.82;99.37;91613.13;5037133;28;20029;-87
2023/01/18 01:51:25;;;;;;;35.35;13.15;;;;;;;7.09;91.75;91640.59;5020937;28;20091;-87
2023/01/18 01:53:51;;;;;;;38.42;13.15;;;;;;;7.07;91.87;91653.91;5037094;28;20025;-88
2023/01/18 01:56:17;;;;;;;35.72;13.00;;;;;;;7.42;91.79;91652.25;5036281;28;20021;-88
2023/01/18 01:58:44;;;;;;;269.02;26.52;;;;;;;7.13;95.25;91661.56;5020611;28;20199;-88
2023/01/18 02:01:09;;;;;;;646.45;39.85;;;;;;;5.99;100.00;91675.44;5020736;28;20022;-88
2023/01/18 02:03:38;;;;;;;778.55;48.00;;;;;;;6.95;100.00;91668.66;5037236;28;20083;-88
2023/01/18 02:06:15;;;;;;;177.25;22.52;;;;;;;7.35;95.28;91670.97;5036457;28;20022;-87
2023/01/18 02:08:42;;;;;;;142.45;21.05;;;;;;;7.66;93.72;91671.75;5036916;28;20039;-88
2023/01/18 02:11:07;;;;;;;60.33;18.52;;;;;;;7.71;93.46;91674.94;5036899;28;20067;-88
2023/01/18 02:13:33;;;;;;;113.80;17.95;;;;;;;7.45;93.90;91688.09;5020574;28;20061;-88
2023/01/18 02:16:09;;;;;;;165.25;20.73;;;;;;;7.36;92.59;91678.47;5053139;28;20053;-87
2023/01/18 02:18:54;;;;;;;82.75;18.98;;;;;;;7.76;90.81;91677.38;5036901;28;20060;-88
2023/01/18 02:21:33;;;;;;;401.85;25.95;;;;;;;6.36;100.00;91675.91;5037827;28;20066;-88
2023/01/18 02:24:26;;;;;;;46.08;14.85;;;;;;;7.67;92.89;91666.22;5036437;28;20033;-88
2023/01/18 02:26:58;;;;;;;35.08;13.48;;;;;;;7.98;88.67;91664.38;5037404;28;20338;-88
2023/01/18 02:29:43;;;;;;;33.13;13.25;;;;;;;6.38;93.33;91675.63;5036502;28;20054;-87
2023/01/18 02:32:08;;;;;;;29.90;12.23;;;;;;;6.68;94.27;91668.72;5036379;28;20030;-88
2023/01/18 02:34:47;;;;;;;123.82;16.60;;;;;;;6.72;96.57;91663.63;5037355;28;20033;-88
2023/01/18 02:37:19;;;;;;;47.15;12.82;;;;;;;6.31;96.92;91661.25;5037124;28;20021;-88
2023/01/18 02:39:57;;;;;;;31.27;11.70;;;;;;;6.57;100.00;91686.47;5036341;28;20430;-88
2023/01/18 02:48:09;;;;;;;30.80;11.02;;;;;;;6.53;95.91;91689.97;5036228;28;20075;-88
2023/01/18 02:50:35;;;;;;;27.23;10.30;;;;;;;6.02;100.00;91706.03;5019645;28;20021;-87
2023/01/18 02:53:01;;;;;;;24.98;9.23;;;;;;;6.40;98.69;91704.69;5035829;28;20029;-86
2023/01/18 02:55:55;;;;;;;21.30;8.50;;;;;;;7.36;92.95;91704.50;5019595;28;20076;-88
2023/01/18 02:58:57;;;;;;;22.55;7.10;;;;;;;7.78;85.44;91692.69;5036149;28;20072;-87
2023/01/18 03:01:33;;;;;;;19.48;7.28;;;;;;;7.54;85.75;91686.22;5036062;28;20491;-88
2023/01/18 03:04:04;;;;;;;14.20;5.10;;;;;;;7.67;91.93;91689.69;5019787;28;20527;-88
2023/01/18 03:06:30;;;;;;;16.52;6.57;;;;;;;7.71;83.92;91677.53;5035001;28;20108;-88
2023/01/18 03:08:57;;;;;;;13.85;6.00;;;;;;;7.93;84.65;91670.53;5052511;28;20116;-88
2023/01/18 03:11:40;;;;;;;14.10;5.65;;;;;;;7.81;81.59;91680.88;5035852;28;20346;-88
2023/01/18 03:14:18;;;;;;;;;;;;;;;8.14;82.15;91672.38;5036672;28;20530;-88
2023/01/18 03:16:57;;;;;;;12.95;4.65;;;;;;;7.63;88.02;91666.06;5035527;28;19928;-88
2023/01/18 03:22:15;;;;;;;15.20;6.13;;;;;;;5.38;100.00;91689.81;5036618;28;20108;-88
2023/01/18 03:24:41;;;;;;;17.73;6.93;;;;;;;7.02;96.15;91684.53;5034643;28;20033;-88
2023/01/18 03:35:26;;;;;;;15.85;6.10;;;;;;;7.67;89.56;91683.69;5016136;28;20084;-88
2023/01/18 03:37:53;;;;;;;12.82;5.47;;;;;;;7.66;90.61;91693.34;5015773;28;20034;-88
2023/01/18 03:40:33;;;;;;;18.42;7.15;;;;;;;7.32;92.21;91693.19;5016034;28;20382;-88
2023/01/18 03:43:02;;;;;;;11.60;4.95;;;;;;;7.59;89.86;91704.28;5016093;28;20124;-87
2023/01/18 03:45:39;;;;;;;15.23;6.38;;;;;;;7.72;86.99;91707.72;5032248;28;20032;-88
2023/01/18 03:48:06;;;;;;;26.83;10.20;;;;;;;7.21;89.72;91710.22;5015640;28;20085;-88
2023/01/18 03:50:40;;;;;;;25.17;9.13;;;;;;;6.52;95.97;91704.84;5015943;28;20026;-88
2023/01/18 03:53:11;;;;;;;397.50;25.25;;;;;;;5.96;97.13;91718.38;5015696;28;20030;-88
2023/01/18 03:55:42;;;;;;;18.77;7.47;;;;;;;6.36;100.00;91728.72;5016020;28;20033;-88
2023/01/18 03:58:10;;;;;;;20.95;6.35;;;;;;;7.01;95.90;91714.25;5015530;28;20436;-88
2023/01/18 04:00:39;;;;;;;17.15;6.93;;;;;;;7.01;95.29;91711.66;5031816;28;20058;-87
2023/01/18 04:03:05;;;;;;;19.25;6.65;;;;;;;7.33;94.44;91718.16;5032014;28;20033;-87
2023/01/18 04:05:30;;;;;;;14.02;5.63;;;;;;;7.36;90.28;91737.63;5032058;28;20065;-87
2023/01/18 04:07:56;;;;;;;17.38;6.40;;;;;;;6.59;95.67;91728.53;5031942;28;20336;-87
2023/01/18 04:10:22;;;;;;;13.02;5.70;;;;;;;7.19;93.65;91734.00;5031767;28;20108;-87
2023/01/18 04:12:47;;;;;;;171.63;11.98;;;;;;;5.84;99.77;91757.16;5015705;28;20111;-87
2023/01/18 04:15:13;;;;;;;14.77;7.05;;;;;;;6.95;95.12;91757.91;5015947;28;20049;-87
2023/01/18 04:17:38;;;;;;;38.30;7.93;;;;;;;6.70;93.86;91762.84;5032415;28;20037;-88
2023/01/18 04:20:04;;;;;;;769.45;52.67;;;;;;;6.72;96.84;91759.91;5035609;28;20436;-88
2023/01/18 04:22:30;;;;;;;28.95;11.10;;;;;;;7.30;92.88;91764.88;5019193;28;20033;-88
2023/01/18 04:24:56;;;;;;;184.20;19.70;;;;;;;7.37;92.35;91757.38;5018231;28;20037;-87
2023/01/18 04:27:21;;;;;;;796.45;53.45;;;;;;;6.93;93.26;91763.44;5018845;28;20018;-87
2023/01/18 04:29:46;;;;;;;127.82;17.33;;;;;;;7.50;92.09;91766.84;5018697;28;20026;-87
2023/01/18 04:32:12;;;;;;;86.03;16.52;;;;;;;7.69;88.23;91776.13;5018430;28;20386;-87
2023/01/18 04:34:37;;;;;;;213.18;20.58;;;;;;;7.58;88.74;91773.09;5018614;28;20030;-87
2023/01/18 04:37:03;;;;;;;156.05;18.33;;;;;;;7.53;87.10;91769.91;5019735;28;20028;-87
2023/01/18 04:39:28;;;;;;;34.20;12.57;;;;;;;7.61;89.23;91761.31;5002163;28;20025;-88
2023/01/18 04:41:54;;;;;;;40.45;12.98;;;;;;;7.34;92.45;91744.97;5002567;28;20405;-87
2023/01/18 04:44:19;;;;;;;245.60;19.10;;;;;;;5.80;100.00;91765.56;5018822;28;20026;-87
2023/01/18 04:46:46;;;;;;;29.30;11.63;;;;;;;7.01;99.65;91758.50;5018642;28;20432;-87
2023/01/18 04:49:14;;;;;;;33.47;12.52;;;;;;;7.85;92.10;91770.38;5002465;28;20041;-87
2023/01/18 04:51:40;;;;;;;33.08;11.70;;;;;;;6.96;90.24;91771.69;5018496;28;20056;-87
2023/01/18 04:54:06;;;;;;;17.40;6.97;;;;;;;7.30;84.98;91754.47;5018099;28;20061;-87
2023/01/18 04:56:31;;;;;;;22.67;9.45;;;;;;;7.62;84.47;91768.03;5034738;28;20064;-87
2023/01/18 04:58:57;;;;;;;8.52;3.28;;;;;;;6.74;94.47;91775.97;5018450;28;20374;-88
2023/01/18 05:01:23;;;;;;;11.48;2.78;;;;;;;6.73;100.00;91782.25;5019444;28;20053;-87
2023/01/18 05:03:48;;;;;;;8.50;3.03;;;;;;;6.84;100.00;91772.31;5018329;28;20029;-88
2023/01/18 05:06:15;;;;;;;6.50;2.55;;;;;;;7.45;95.70;91776.66;5002067;28;20018;-88
2023/01/18 05:08:41;;;;;;;7.32;2.70;;;;;;;7.46;93.74;91771.16;5018160;28;20343;-87
2023/01/18 05:11:09;;;;;;;7.05;2.50;;;;;;;8.18;88.09;91780.97;5022585;28;20116;-87
2023/01/18 05:13:36;;;;;;;589.72;37.33;;;;;;;7.61;87.32;91789.97;5037834;28;20021;-87
2023/01/18 05:16:04;;;;;;;1100.07;75.32;;;;;;;7.85;86.37;91799.06;5037503;28;20018;-88
2023/01/18 05:18:30;;;;;;;55.70;14.63;;;;;;;8.20;85.28;91807.50;5021468;28;20091;-88
2023/01/18 05:20:57;;;;;;;34.65;13.02;;;;;;;7.93;86.29;91799.03;5021792;28;20040;-87
2023/01/18 05:23:23;;;;;;;34.90;12.63;;;;;;;7.95;86.48;91808.38;5037720;28;20056;-86
2023/01/18 05:25:56;;;;;;;221.60;21.55;;;;;;;8.18;83.02;91816.72;5053817;28;20432;-86
2023/01/18 05:28:25;;;;;;;86.32;14.13;;;;;;;8.20;78.92;91819.78;5053849;28;20029;-87
2023/01/18 05:30:51;;;;;;;37.33;12.27;;;;;;;8.03;80.08;91820.63;5020265;28;20064;-86
2023/01/18 05:33:18;;;;;;;394.17;31.27;;;;;;;7.33;88.45;91813.78;5037030;28;20052;-87
2023/01/18 05:35:53;;;;;;;117.32;9.50;;;;;;;7.62;83.59;91809.72;5053919;28;20033;-87
2023/01/18 05:38:20;;;;;;;22.70;9.52;;;;;;;7.62;85.88;91801.91;5038570;28;20334;-87
2023/01/18 05:40:51;;;;;;;138.77;16.98;;;;;;;7.95;82.33;91816.97;5038547;28;20021;-87
2023/01/18 05:43:16;;;;;;;345.70;24.25;;;;;;;7.18;91.90;91809.81;5021534;28;20035;-87
2023/01/18 05:45:42;;;;;;;198.35;16.77;;;;;;;7.61;85.29;91816.03;5038286;28;20331;-86
2023/01/18 05:48:08;;;;;;;200.70;17.23;;;;;;;7.86;84.74;91816.22;5052950;28;20048;-87
2023/01/18 05:50:34;;;;;;;329.95;29.13;;;;;;;7.16;89.92;91807.50;5026418;28;20033;-86
2023/01/18 05:52:59;;;;;;;293.23;20.83;;;;;;;7.08;89.71;91816.84;5036824;28;20030;-87
2023/01/18 05:55:26;;;;;;;21.65;7.18;;;;;;;6.81;93.25;91806.75;5036972;28;20036;-87
2023/01/18 05:57:51;;;;;;;19.75;6.82;;;;;;;7.00;93.79;91811.66;5020285;28;20091;-87
2023/01/18 06:00:17;;;;;;;14.02;3.40;;;;;;;7.72;84.73;91819.78;5019794;28;20033;-87
2023/01/18 06:02:43;;;;;;;3.78;1.75;;;;;;;8.38;76.50;91817.84;5016873;28;20506;-86
2023/01/18 06:05:09;;;;;;;98.68;38.30;;;;;;;8.49;75.04;91820.84;5025343;28;20033;-87
2023/01/18 06:07:34;;;;;;;16.73;4.68;;;;;;;8.74;70.00;91827.00;5037838;28;20026;-87
2023/01/18 06:09:59;;;;;;;22.20;8.23;;;;;;;8.44;76.73;91837.47;5036809;28;20488;-86
2023/01/18 06:12:25;;;;;;;28.48;14.25;;;;;;;8.65;73.50;91849.03;5036632;28;20422;-87
2023/01/18 06:14:50;;;;;;;128.32;13.63;;;;;;;8.14;77.85;91858.31;5053221;28;20034;-87
2023/01/18 06:17:16;;;;;;;380.92;25.65;;;;;;;7.96;75.44;91854.22;5053080;28;20434;-88
2023/01/18 06:19:41;;;;;;;230.95;20.50;;;;;;;7.56;77.08;91858.63;5037791;28;20029;-87
2023/01/18 06:22:07;;;;;;;357.27;26.95;;;;;;;6.30;92.73;91846.19;5053104;28;20454;-87
2023/01/18 06:24:32;;;;;;;23.60;10.35;;;;;;;7.15;91.92;91855.44;5036243;28;20030;-86
2023/01/18 06:26:59;;;;;;;73.05;10.63;;;;;;;7.34;89.92;91844.72;5052602;28;20025;-87
2023/01/18 06:29:24;;;;;;;19.35;7.50;;;;;;;7.52;85.41;91854.34;5036479;28;20033;-87
2023/01/18 06:31:50;;;;;;;10.98;4.25;;;;;;;7.45;89.96;91841.78;5052832;28;20346;-87
2023/01/18 06:34:15;;;;;;;12.32;3.53;;;;;;;7.62;85.93;91849.56;5037545;28;20033;-87
2023/01/18 06:36:42;;;;;;;19.13;6.88;;;;;;;7.88;83.10;91848.75;5036215;28;20490;-86
2023/01/18 06:39:07;;;;;;;11.63;2.90;;;;;;;7.98;81.90;91855.44;5051037;28;20033;-87
2023/01/18 06:41:33;;;;;;;11.18;3.40;;;;;;;8.45;76.99;91861.69;5017428;28;20026;-87
2023/01/18 06:43:58;;;;;;;13.40;3.55;;;;;;;8.20;74.09;91862.28;5016333;28;20037;-87
2023/01/18 06:46:23;;;;;;;16.55;3.13;;;;;;;8.61;75.47;91873.16;5016423;28;20026;-88
2023/01/18 06:48:49;;;;;;;10.75;2.95;;;;;;;8.72;72.01;91884.00;5032966;28;20419;-87
2023/01/18 06:51:14;;;;;;;9.07;2.90;;;;;;;8.91;74.62;91873.13;5000263;28;20079;-87
2023/01/18 06:53:40;;;;;;;7.43;2.42;;;;;;;8.71;69.28;91876.47;5016299;28;20034;-87
2023/01/18 06:56:09;;;;;;;6.85;2.30;;;;;;;9.18;69.85;91871.09;5000003;28;20029;-88
2023/01/18 06:58:35;;;;;;;5.60;2.25;;;;;;;8.31;71.90;91854.84;5016284;28;20445;-87
2023/01/18 07:01:01;;;;;;;7.57;2.00;;;;;;;9.16;69.62;91859.44;5000023;28;20355;-87
2023/01/18 07:03:28;;;;;;;7.22;2.28;;;;;;;9.37;66.42;91850.81;5016240;28;20030;-88
2023/01/18 07:05:54;;;;;;;16.60;8.10;;;;;;;9.39;69.52;91859.88;5016163;28;20032;-88
2023/01/18 07:08:20;;;;;;;15.35;5.25;;;;;;;9.46;67.42;91869.81;5032588;28;20029;-88
2023/01/18 07:10:47;;;;;;;8.02;3.38;;;;;;;9.47;68.63;91879.94;4999652;28;20030;-88
2023/01/18 07:13:12;;;;;;;9.20;1.90;;;;;;;9.47;66.33;91877.34;5016110;28;20068;-88
2023/01/18 07:15:38;;;;;;;15.77;3.05;;;;;;;9.02;65.41;91876.13;4999852;28;20070;-89
2023/01/18 07:18:03;;;;;;;10.60;1.95;;;;;;;9.35;65.23;91882.50;5016030;28;20034;-89
2023/01/18 07:20:29;;;;;;;6.97;1.83;;;;;;;9.45;65.54;91889.94;5017246;28;20030;-88
2023/01/18 07:22:54;;;;;;;5.05;1.58;;;;;;;9.26;65.47;91907.94;5015991;28;20032;-88
2023/01/18 07:25:20;;;;;;;44.40;22.90;;;;;;;9.71;66.71;91906.50;5015925;28;20034;-88
2023/01/18 07:27:47;;;;;;;6.45;3.08;;;;;;;9.69;68.04;91914.66;4999680;28;20030;-88
2023/01/18 07:30:14;;;;;;;9.95;3.85;;;;;;;9.07;71.71;91898.69;5016115;28;20030;-88
2023/01/18 07:32:48;;;;;;;9.10;3.85;;;;;;;8.78;79.76;91879.38;5015731;28;20030;-88
2023/01/18 07:35:14;;;;;;;6.55;1.80;;;;;;;7.84;86.04;91889.56;4999787;28;20022;-88
2023/01/18 07:37:40;;;;;;;7.03;1.60;;;;;;;8.75;80.80;91883.38;5032193;28;20444;-88
2023/01/18 07:40:08;;;;;;;3.45;0.60;;;;;;;9.63;53.40;91874.13;5015813;28;20105;-88
2023/01/18 07:42:33;;;;;;;19.52;8.25;;;;;;;10.00;64.58;91902.97;5015950;28;20028;-88
2023/01/18 07:44:59;;;;;;;27.38;10.20;;;;;;;9.71;68.07;91902.00;5015905;28;20419;-88
2023/01/18 07:47:24;;;;;;;14.20;5.78;;;;;;;9.86;65.43;91902.50;5032203;28;20121;-88
2023/01/18 07:49:49;;;;;;;22.15;6.22;;;;;;;9.52;68.52;91914.81;4999202;28;20367;-88
2023/01/18 07:52:15;;;;;;;10.52;4.05;;;;;;;9.60;67.43;91916.56;5015955;28;20021;-87
2023/01/18 07:54:40;;;;;;;16.95;6.20;;;;;;;8.81;72.02;91915.28;5003179;28;20335;-88
2023/01/18 07:57:06;;;;;;;16.75;4.45;;;;;;;6.79;95.10;91919.72;5019631;28;20032;-88
2023/01/18 07:59:32;;;;;;;10.50;3.58;;;;;;;8.57;85.88;91932.28;5003295;28;20026;-88
2023/01/18 08:01:57;;;;;;;8.60;2.92;;;;;;;8.60;76.29;91936.88;5003359;28;20076;-88
2023/01/18 08:04:23;;;;;;;23.33;9.25;;;;;;;8.49;78.51;91943.50;5003505;28;20025;-87
2023/01/18 08:06:50;;;;;;;17.02;6.18;;;;;;;8.90;74.02;91949.19;5019368;28;20071;-88
2023/01/18 08:09:15;;;;;;;19.08;7.38;;;;;;;9.30;73.50;91967.06;5019296;28;20029;-88
2023/01/18 08:11:40;;;;;;;25.88;10.68;;;;;;;9.32;73.49;91979.81;5003317;28;20022;-88
2023/01/18 08:14:06;;;;;;;19.92;7.95;;;;;;;8.55;73.99;91970.97;5019237;28;20101;-88
2023/01/18 08:16:31;;;;;;;20.40;7.47;;;;;;;8.38;79.46;91965.78;5019065;28;20037;-88
2023/01/18 08:18:57;;;;;;;170.18;12.68;;;;;;;7.99;82.69;91970.97;5019333;28;20060;-88
2023/01/18 08:21:22;;;;;;;15.63;6.20;;;;;;;8.02;87.72;91978.91;5019083;28;20059;-88
2023/01/18 08:23:50;;;;;;;11.18;4.15;;;;;;;8.75;81.36;91981.78;5019195;28;20022;-88
2023/01/18 08:26:15;;;;;;;18.08;9.23;;;;;;;8.66;78.96;91988.91;5003355;28;20394;-88
2023/01/18 08:28:41;;;;;;;10.70;5.40;;;;;;;8.69;82.50;91986.44;5019401;28;20124;-88
2023/01/18 08:31:09;;;;;;;12.00;5.50;;;;;;;9.40;81.28;91986.09;5002721;28;20107;-88
2023/01/18 08:33:39;;;;;;;20.45;9.68;;;;;;;9.88;76.75;91982.16;5002934;28;20025;-88
2023/01/18 08:36:09;;;;;;;30.70;14.10;;;;;;;10.39;74.44;91986.44;5002900;28;20021;-87
2023/01/18 08:38:34;;;;;;;34.55;14.73;;;;;;;10.48;72.63;92002.13;5002776;28;20053;-88
2023/01/18 08:41:02;;;;;;;50.22;20.92;;;;;;;10.26;72.74;92014.44;5019186;28;20445;-88
2023/01/18 08:43:27;;;;;;;22.90;7.65;;;;;;;9.59;69.29;92023.00;5002861;28;20026;-88
2023/01/18 08:45:53;;;;;;;13.35;5.45;;;;;;;8.43;81.31;92026.41;5035035;28;20088;-88
2023/01/18 08:48:18;;;;;;;15.48;6.05;;;;;;;9.70;73.20;92044.28;5018334;28;20104;-88
2023/01/18 08:50:45;;;;;;;24.88;8.75;;;;;;;9.37;74.76;92044.97;5018469;28;20091;-87
2023/01/18 08:53:12;;;;;;;22.23;8.73;;;;;;;8.80;82.37;92046.91;5002477;28;20021;-88
2023/01/18 08:55:39;;;;;;;21.73;8.82;;;;;;;9.68;77.08;92051.69;5018415;28;20029;-87
2023/01/18 08:58:05;;;;;;;71.72;12.18;;;;;;;8.83;80.78;92069.78;5018385;28;20328;-88
2023/01/18 09:00:30;;;;;;;32.40;12.38;;;;;;;9.52;75.74;92076.88;5018304;28;20033;-88
2023/01/18 09:02:56;;;;;;;146.25;18.88;;;;;;;8.09;84.34;92089.81;5001860;28;20022;-88
2023/01/18 09:05:23;;;;;;;360.15;19.98;;;;;;;8.20;84.95;92086.59;5002020;28;20025;-88
2023/01/18 09:07:49;;;;;;;67.03;13.18;;;;;;;8.18;88.12;92077.56;5018144;28;20034;-88
2023/01/18 09:10:15;;;;;;;37.45;13.70;;;;;;;7.50;94.23;92084.72;5001767;28;20392;-88
2023/01/18 09:12:41;;;;;;;39.53;12.32;;;;;;;6.27;100.00;92088.63;5002001;28;20073;-88
2023/01/18 09:15:17;;;;;;;31.48;12.18;;;;;;;7.55;100.00;92096.84;5019201;28;20463;-88
2023/01/18 09:17:43;;;;;;;35.90;13.13;;;;;;;8.26;90.29;92089.81;5001878;28;20490;-88
2023/01/18 09:20:10;;;;;;;39.78;14.20;;;;;;;7.57;95.32;92076.44;5019169;28;20026;-88
2023/01/18 09:22:37;;;;;;;47.92;15.40;;;;;;;8.47;94.45;92089.19;5017926;28;20026;-87
2023/01/18 09:25:03;;;;;;;39.67;13.18;;;;;;;6.83;100.00;92080.50;5001994;28;20025;-88
2023/01/18 09:27:28;;;;;;;32.05;11.27;;;;;;;8.30;93.15;92095.19;5017800;28;20160;-88
2023/01/18 09:29:54;;;;;;;26.30;10.20;;;;;;;8.33;87.11;92099.78;5001630;28;20084;-88
2023/01/18 09:32:20;;;;;;;27.27;8.20;;;;;;;8.98;78.50;92105.06;5001601;28;20447;-88
2023/01/18 09:34:49;;;;;;;51.78;12.57;;;;;;;8.35;90.23;92108.06;5017695;28;20025;-88
2023/01/18 09:37:16;;;;;;;28.70;12.38;;;;;;;9.23;89.77;92122.81;5001935;28;20037;-88
2023/01/18 09:39:42;;;;;;;33.28;15.73;;;;;;;8.70;83.15;92128.94;5034035;28;20056;-88
2023/01/18 09:42:19;;;;;;;431.13;28.67;;;;;;;8.61;93.88;92136.00;5018712;28;20034;-87
2023/01/18 09:44:47;;;;;;;29.70;12.45;;;;;;;9.36;88.88;92129.69;5034304;28;20026;-88
2023/01/18 09:47:42;;;;;;;38.20;14.05;;;;;;;8.71;85.66;92151.38;5001353;28;20046;-88
2023/01/18 09:50:16;;;;;;;455.27;31.55;;;;;;;8.52;90.48;92143.06;4999575;28;20037;-88
2023/01/18 09:53:26;;;;;;;53.78;15.50;;;;;;;8.30;96.27;92139.53;5018521;28;20108;-87
2023/01/18 09:55:56;;;;;;;72.00;16.42;;;;;;;8.05;96.87;92134.78;4998527;28;20458;-88
2023/01/18 09:58:32;;;;;;;39.85;14.02;;;;;;;8.72;97.28;92139.06;5033675;28;20021;-88
2023/01/18 10:01:02;;;;;;;34.38;12.82;;;;;;;8.67;90.76;92134.75;5018131;28;20029;-88
2023/01/18 10:03:48;;;;;;;27.65;10.52;;;;;;;9.74;84.63;92133.34;5017077;28;20449;-88
2023/01/18 10:06:49;;;;;;;42.38;14.23;;;;;;;9.68;85.97;92137.97;5000985;28;20140;-88
2023/01/18 10:09:21;;;;;;;34.42;13.40;;;;;;;9.30;89.40;92139.53;5018177;28;20018;-88
2023/01/18 10:12:13;;;;;;;111.38;16.35;;;;;;;9.16;84.93;92154.66;5017060;28;20041;-88
2023/01/18 10:15:09;;;;;;;130.90;17.20;;;;;;;8.99;92.13;92166.69;5017012;28;20021;-88
2023/01/18 10:17:39;;;;;;;688.60;49.67;;;;;;;9.17;89.27;92159.53;5001138;28;20026;-88
2023/01/18 10:20:15;;;;;;;138.48;17.13;;;;;;;9.66;86.50;92168.13;5016875;28;20022;-87
2023/01/18 10:22:48;;;;;;;878.92;58.78;;;;;;;7.91;92.56;92165.44;5016669;28;20029;-88
2023/01/18 10:25:23;;;;;;;674.42;46.35;;;;;;;8.05;94.07;92158.25;5017090;28;20022;-88
2023/01/18 10:27:57;;;;;;;602.28;33.75;;;;;;;8.40;98.25;92159.34;5032037;28;20036;-88
2023/01/18 10:30:36;;;;;;;105.93;33.30;;;;;;;9.61;89.96;92148.94;5030848;28;20026;-88
2023/01/18 10:33:13;;;;;;;432.98;31.73;;;;;;;9.10;90.11;92159.25;5028024;28;20025;-88
2023/01/18 10:35:41;;;;;;;55.88;17.73;;;;;;;9.98;89.27;92155.50;5032979;28;20030;-88
2023/01/18 10:38:11;;;;;;;47.85;17.77;;;;;;;10.19;86.14;92158.91;5000119;28;20034;-88
2023/01/18 10:40:38;;;;;;;167.10;18.90;;;;;;;10.50;81.50;92159.63;5017485;28;20022;-88
2023/01/18 10:43:09;;;;;;;108.88;18.70;;;;;;;10.96;75.98;92164.16;5032915;28;20032;-87
2023/01/18 10:45:34;;;;;;;24.30;10.27;;;;;;;10.70;70.95;92154.69;5033223;28;20057;-87
2023/01/18 10:48:27;;;;;;;75.65;28.20;;;;;;;10.84;75.07;92160.41;5017424;28;20388;-87
2023/01/18 10:51:06;;;;;;;28.00;11.38;;;;;;;10.65;77.06;92166.13;5033102;28;20423;-88
2023/01/18 10:53:34;;;;;;;28.95;10.75;;;;;;;10.66;81.31;92172.13;5016640;28;20120;-88
2023/01/18 10:56:06;;;;;;;35.20;14.18;;;;;;;9.71;87.91;92168.72;5000111;28;20045;-87
2023/01/18 10:58:34;;;;;;;110.57;47.28;;;;;;;10.97;82.42;92163.06;5033152;28;20029;-87
2023/01/18 11:01:02;;;;;;;32.22;13.25;;;;;;;10.52;81.91;92164.53;5032658;28;20121;-88
2023/01/18 11:03:28;;;;;;;36.00;15.18;;;;;;;11.70;74.21;92163.53;5016700;28;20129;-88
2023/01/18 11:06:02;;;;;;;78.82;15.80;;;;;;;12.05;71.05;92154.44;5017529;28;20136;-88
2023/01/18 11:08:33;;;;;;;673.15;35.55;;;;;;;11.10;74.21;92156.00;5032480;28;20029;-88
2023/01/18 11:14:29;;;;;;;41.00;12.70;;;;;;;11.65;71.60;92156.63;5017193;28;20037;-88
2023/01/18 11:17:09;;;;;;;29.92;12.75;;;;;;;11.72;72.86;92156.09;4999673;28;20435;-88
2023/01/18 11:19:35;;;;;;;52.47;22.23;;;;;;;11.60;69.87;92159.44;5031953;28;20447;-88
2023/01/18 11:22:01;;;;;;;29.38;12.50;;;;;;;11.28;75.49;92153.97;5032477;28;20061;-87
2023/01/18 11:24:29;;;;;;;26.42;10.38;;;;;;;11.10;78.94;92161.25;5032616;28;20034;-88
2023/01/18 11:26:57;;;;;;;24.42;11.45;;;;;;;11.84;71.16;92163.19;5032324;28;20063;-88
2023/01/18 11:29:30;;;;;;;24.13;11.02;;;;;;;10.32;79.23;92156.34;5020282;28;20030;-88
2023/01/18 11:32:00;;;;;;;41.90;16.83;;;;;;;10.88;80.02;92156.06;5036812;28;20124;-87
2023/01/18 11:34:26;;;;;;;52.90;23.20;;;;;;;10.83;79.38;92165.97;5036334;28;20033;-88
2023/01/18 11:36:52;;;;;;;28.70;11.23;;;;;;;11.60;72.34;92154.97;5020729;28;20033;-87
2023/01/18 11:39:20;;;;;;;18.52;8.18;;;;;;;10.53;72.90;92158.22;5020047;28;20025;-87
2023/01/18 11:41:47;;;;;;;20.55;7.70;;;;;;;11.79;69.15;92166.78;5020746;28;20116;-88
2023/01/18 11:44:33;;;;;;;73.97;37.30;;;;;;;12.29;65.16;92172.03;5036189;28;20064;-87
2023/01/18 11:47:02;;;;;;;17.65;8.15;;;;;;;10.95;72.01;92165.25;5020704;28;20443;-88
2023/01/18 11:49:56;;;;;;;23.55;9.85;;;;;;;11.76;71.91;92182.41;5019750;28;20037;-88
2023/01/18 11:52:36;;;;;;;53.83;28.45;;;;;;;12.25;67.26;92186.88;5036064;28;20431;-88
2023/01/18 11:55:06;;;;;;;35.22;17.52;;;;;;;11.88;66.34;92192.91;5020072;28;20124;-88
2023/01/18 11:57:32;;;;;;;26.92;11.18;;;;;;;10.22;78.58;92191.53;5019424;28;20420;-87
2023/01/18 11:59:58;;;;;;;25.75;9.20;;;;;;;9.46;82.88;92188.66;5020689;28;20030;-88
2023/01/18 12:02:23;;;;;;;23.35;9.63;;;;;;;10.70;75.65;92192.13;5035981;28;20439;-88
2023/01/18 12:05:24;;;;;;;22.23;9.63;;;;;;;10.52;74.07;92173.16;5020314;28;20084;-88
2023/01/18 12:08:02;;;;;;;21.08;8.73;;;;;;;10.91;72.09;92161.75;5003350;28;20125;-87
2023/01/18 12:10:53;;;;;;;26.25;8.43;;;;;;;9.81;82.82;92156.38;5035897;28;20026;-88
2023/01/18 12:13:24;;;;;;;20.83;8.02;;;;;;;11.09;76.46;92170.19;5035851;28;20105;-88
2023/01/18 12:16:15;;;;;;;20.20;7.72;;;;;;;11.43;75.07;92174.31;5020024;28;20040;-88